Flight Track Log - Related Links

Times and Time Zones

All times are in EDT time to prevent confusion due to time zone crossing. See the SWA2852 flight status page for this flight to view local times or setup timezone preferences in your user account.

Time Position Orientation Groundspeed Altitude Reporting Facility
EDT Latitude Longitude Course Direction KTS MPH feet Rate Location/Type
Wed 12:13:49 AM 33.4333 -112.0167 253° West 147 169 2,000  Level Phoenix TRACON
Wed 12:14:33 AM 33.4253 -112.0492 253° West 139 160 3,900 2,914 Climbing Albuquerque Center
Wed 12:15:34 AM 33.4050 -112.1147 250° West 218 251 7,100 3,639 Climbing Albuquerque Center
Wed 12:16:35 AM 33.3867 -112.1983 255° West 255 293 11,300 3,197 Climbing Albuquerque Center
Wed 12:17:36 AM 33.3883 -112.3081 271° West 345 397 13,600 3,246 Climbing Albuquerque Center
Wed 12:18:37 AM 33.4050 -112.4269 280° West 362 417 17,900 4,623 Climbing Albuquerque Center
Wed 12:19:38 AM 33.4200 -112.5431 279° West 353 406 23,000 4,131 Climbing Albuquerque Center
Wed 12:20:39 AM 33.4081 -112.6633 263° West 327 376 26,300 3,197 Climbing Albuquerque Center
Wed 12:21:40 AM 33.3969 -112.7708 263° West 326 375 29,500 2,213 Climbing Albuquerque Center
Wed 12:22:41 AM 33.4272 -112.8758 289° West 342 394 30,800 1,636 Climbing Albuquerque Center
Wed 12:23:41 AM 33.4683 -112.9878 294° West 364 419 32,800 2,529 Climbing Albuquerque Center
Wed 12:24:42 AM 33.5089 -113.0942 295° West 359 413 35,900 1,574 Climbing Albuquerque Center
Wed 12:25:43 AM 33.5478 -113.1978 294° West 347 399 36,000 49 Climbing Albuquerque Center
Wed 12:26:44 AM 33.5875 -113.3036 294° West 349 402 36,000  Level Albuquerque Center
Wed 12:27:44 AM 33.6072 -113.4164 282° West 348 400 36,000  Level Albuquerque Center
Wed 12:28:45 AM 33.6192 -113.5422 277° West 345 397 36,000  Level Albuquerque Center
Wed 12:29:46 AM 33.6306 -113.6569 277° West 347 399 36,000  Level Albuquerque Center
Wed 12:30:47 AM 33.6425 -113.7719 277° West 348 400 36,000  Level Albuquerque Center
Wed 12:31:47 AM 33.6528 -113.8900 276° West 353 406 36,000  Level Albuquerque Center
Wed 12:32:48 AM 33.6650 -114.0044 277° West 349 402 36,000  Level Albuquerque Center
Wed 12:33:49 AM 33.6767 -114.1208 277° West 352 405 36,000  Level Albuquerque Center
Wed 12:34:50 AM 33.6864 -114.2497 275° West 355 409 36,000  Level Albuquerque Center
Wed 12:35:50 AM 33.6989 -114.3653 277° West 351 404 36,000  Level Albuquerque Center
Wed 12:36:42 AM 33.7081 -114.4717 276° West 356 410 36,000  Level Los Angeles Center
Wed 12:37:44 AM 33.7194 -114.5894 277° West 355 409 36,000  Level Los Angeles Center
Wed 12:38:45 AM 33.7303 -114.7086 276° West 359 413 36,000  Level Los Angeles Center
Wed 12:39:46 AM 33.7397 -114.8261 276° West 355 409 36,000  Level Los Angeles Center
Wed 12:40:48 AM 33.7506 -114.9439 276° West 355 409 36,000  Level Los Angeles Center
Wed 12:41:49 AM 33.7600 -115.0600 276° West 352 405 36,000  Level Los Angeles Center
Wed 12:42:50 AM 33.7706 -115.1767 276° West 353 406 36,000  Level Los Angeles Center
Wed 12:43:51 AM 33.7806 -115.2914 276° West 349 402 36,000  Level Los Angeles Center
Wed 12:44:52 AM 33.7917 -115.4311 276° West 351 404 36,000  Level Los Angeles Center
Wed 12:45:54 AM 33.8008 -115.5475 275° West 351 404 36,000 -390 Level Los Angeles Center
Wed 12:46:55 AM 33.8111 -115.6636 276° West 351 404 35,200 -836 Descending Los Angeles Center
Wed 12:47:56 AM 33.8194 -115.7786 275° West 349 402 34,300 -590 Descending Los Angeles Center
Wed 12:48:57 AM 33.8286 -115.8981 275° West 358 412 34,000 -295 Descending Los Angeles Center
Wed 12:49:58 AM 33.8383 -116.0175 276° West 361 415 33,700 -683 Descending Los Angeles Center
Wed 12:51:00 AM 33.8481 -116.1353 276° West 358 412 32,600 -2,146 Descending Los Angeles Center
Wed 12:52:01 AM 33.8567 -116.2508 275° West 349 402 29,300 -3,541 Descending Los Angeles Center
Wed 12:53:02 AM 33.8667 -116.3889 275° West 347 399 25,400 -3,295 Descending Los Angeles Center
Wed 12:54:03 AM 33.8739 -116.5031 274° West 345 397 22,600 -2,705 Descending Los Angeles Center
Wed 12:55:04 AM 33.8783 -116.6125 273° West 334 384 19,900 -2,705 Descending Los Angeles Center
Wed 12:56:05 AM 33.8844 -116.7192 274° West 324 373 17,100 -2,732 Descending Los Angeles Center
Wed 12:57:07 AM 33.8886 -116.8281 273° West 326 375 14,300 -2,022 Descending Los Angeles Center
Wed 12:57:37 AM 33.8833 -116.9000 265° West 335 386 14,000 -667 Descending Southern California TRACON
Wed 12:58:37 AM 33.8667 -117.0000 259° West 339 390 13,300 -717 Descending Southern California TRACON
Wed 12:59:09 AM 33.8617 -117.0486 263° West 338 389 12,900 -516 Descending Los Angeles Center
Wed 01:00:10 AM 33.8436 -117.1600 259° West 342 394 12,500 -934 Descending Los Angeles Center
Wed 01:01:11 AM 33.8261 -117.2739 260° West 346 398 11,000 -1,164 Descending Los Angeles Center
Wed 01:02:24 AM 33.8103 -117.3819 260° West 336 387 9,900 -1,299 Descending Los Angeles Center
Wed 01:03:25 AM 33.7919 -117.5094 260° West 284 327 8,100 -1,610 Descending Los Angeles Center
Wed 01:04:27 AM 33.7794 -117.5981 260° West 275 316 6,600 -1,318 Descending Los Angeles Center
Wed 01:05:37 AM 33.7833 -117.7000 273° West 241 277 5,200 -1,800 Descending Southern California TRACON
Wed 01:06:37 AM 33.7833 -117.7667 270° West 218 251 2,700 -1,500 Descending Southern California TRACON
Wed 01:07:37 AM 33.7500 -117.8167 231° Southwest 160 184 2,200 -850 Descending Southern California TRACON
Wed 01:08:37 AM 33.7167 -117.8333 203° Southwest 135 155 1,000 -950 Descending Southern California TRACON
Wed 01:09:37 AM 33.6833 -117.8667 220° Southwest 122 140 300 -700 Descending Southern California TRACON
Wed 01:12:00 AM 33.6757 -117.8682 132° Southeast  Level Estimated
Wed 01:19:00 AM 33.6757 -117.8682 132° Southeast  Level Estimated

Login

Don't have an account? Register now (free) for customized features, flight alerts, and more!